Time;durP1;ratioP1;P1;durP2;ratioP2;P2;SDS_P1;SDS_P2;PMS_P1;PMS_P2;Temp;Humidity;BMP_temperature;BMP_pressure;BME280_temperature;BME280_humidity;BME280_pressure;Samples;Min_cycle;Max_cycle;Signal;HPM_P1;HPM_P2
2023/01/16 00:01:27;;;;;;;8.65;3.55;;;3.90;99.90;;;;;;7371143;19;20049;-60
2023/01/16 00:03:54;;;;;;;7.45;3.53;;;3.90;99.90;;;;;;7369529;19;20510;-60
2023/01/16 00:06:20;;;;;;;7.68;4.10;;;3.90;99.90;;;;;;7370318;19;20040;-62
2023/01/16 00:08:48;;;;;;;10.23;3.72;;;3.90;99.90;;;;;;7367528;19;20028;-62
2023/01/16 00:11:14;;;;;;;7.47;3.17;;;3.80;99.90;;;;;;7371541;19;20038;-62
2023/01/16 00:13:41;;;;;;;8.93;4.47;;;3.80;99.90;;;;;;7365491;19;20061;-62
2023/01/16 00:16:08;;;;;;;7.38;3.38;;;3.90;99.90;;;;;;7370980;19;20043;-62
2023/01/16 00:18:34;;;;;;;11.13;3.75;;;3.90;99.90;;;;;;7366273;19;20023;-62
2023/01/16 00:21:02;;;;;;;8.15;3.50;;;3.90;99.90;;;;;;7372060;19;20024;-61
2023/01/16 00:23:31;;;;;;;8.45;3.78;;;4.00;99.90;;;;;;7364711;19;20030;-62
2023/01/16 00:25:58;;;;;;;7.57;3.08;;;4.00;99.90;;;;;;7366991;19;20025;-62
2023/01/16 00:28:25;;;;;;;8.38;3.50;;;4.10;99.90;;;;;;7364376;19;20022;-62
2023/01/16 00:30:51;;;;;;;6.60;3.35;;;4.10;99.90;;;;;;7368914;19;20019;-69
2023/01/16 00:33:18;;;;;;;9.48;4.05;;;4.20;99.90;;;;;;7366191;19;20023;-68
2023/01/16 00:35:47;;;;;;;11.07;3.60;;;4.30;99.90;;;;;;7367441;19;20074;-68
2023/01/16 00:38:13;;;;;;;8.43;3.90;;;4.40;99.90;;;;;;7369060;19;20604;-66
2023/01/16 00:40:41;;;;;;;6.88;3.50;;;4.40;99.90;;;;;;7368682;19;20596;-66
2023/01/16 00:43:07;;;;;;;9.13;4.05;;;4.40;99.90;;;;;;7365939;19;20857;-66
2023/01/16 00:45:33;;;;;;;4.75;3.20;;;4.50;99.90;;;;;;7368432;19;20015;-66
2023/01/16 00:48:00;;;;;;;5.57;3.13;;;4.50;99.90;;;;;;7366601;19;20018;-60
2023/01/16 00:50:26;;;;;;;8.25;3.13;;;4.50;99.90;;;;;;7367122;19;20014;-60
2023/01/16 00:52:53;;;;;;;12.05;3.58;;;4.50;99.90;;;;;;7366459;19;20022;-62
2023/01/16 00:55:19;;;;;;;11.63;3.70;;;4.50;99.90;;;;;;7367681;19;20650;-62
2023/01/16 00:57:46;;;;;;;10.68;3.25;;;4.40;99.90;;;;;;7370159;19;20022;-62
2023/01/16 01:00:13;;;;;;;7.70;3.20;;;4.40;99.90;;;;;;7376533;19;20591;-60
2023/01/16 01:02:39;;;;;;;7.85;3.05;;;4.30;99.90;;;;;;7369772;19;20044;-60
2023/01/16 01:05:06;;;;;;;8.50;2.75;;;4.30;99.90;;;;;;7377474;19;20018;-60
2023/01/16 01:07:32;;;;;;;5.28;2.97;;;4.20;99.90;;;;;;7377576;19;20580;-68
2023/01/16 01:09:59;;;;;;;8.10;2.80;;;4.10;99.90;;;;;;7375302;19;20018;-68
2023/01/16 01:12:25;;;;;;;9.00;3.08;;;4.10;99.90;;;;;;7374203;19;20077;-68
2023/01/16 01:14:51;;;;;;;5.38;2.30;;;4.20;99.90;;;;;;7371756;19;20022;-62
2023/01/16 01:17:17;;;;;;;7.35;3.40;;;4.20;99.90;;;;;;7377043;19;20022;-62
2023/01/16 01:19:46;;;;;;;11.05;4.45;;;4.20;99.90;;;;;;7368407;19;20871;-62
2023/01/16 01:22:12;;;;;;;8.98;3.33;;;4.20;99.90;;;;;;7373606;19;20510;-60
2023/01/16 01:24:38;;;;;;;10.68;3.42;;;4.10;99.90;;;;;;7370656;19;20010;-62
2023/01/16 01:27:05;;;;;;;9.05;3.03;;;4.10;99.90;;;;;;7372198;19;20046;-62
2023/01/16 01:29:35;;;;;;;5.70;3.45;;;4.00;99.90;;;;;;7371046;19;20010;-62
2023/01/16 01:32:02;;;;;;;12.77;3.33;;;4.00;99.90;;;;;;7377395;19;20019;-62
2023/01/16 01:34:32;;;;;;;9.75;2.83;;;4.00;99.90;;;;;;7372575;19;20122;-62
2023/01/16 01:37:00;;;;;;;12.00;3.20;;;4.00;99.90;;;;;;7372532;19;20380;-62
2023/01/16 01:39:27;;;;;;;7.50;3.20;;;4.00;99.90;;;;;;7376268;19;20017;-62
2023/01/16 01:42:41;;;;;;;6.78;3.22;;;4.10;99.90;;;;;;7373055;19;20042;-62
2023/01/16 01:44:55;;;;;;;10.50;3.25;;;4.20;99.90;;;;;;7371350;19;21121;-67
2023/01/16 01:47:34;;;;;;;8.43;3.08;;;4.20;99.90;;;;;;7374636;19;20014;-67
2023/01/16 01:50:03;;;;;;;8.88;3.35;;;4.30;99.90;;;;;;7364976;19;20018;-67
2023/01/16 01:52:31;;;;;;;7.32;2.85;;;4.30;99.90;;;;;;7371600;19;20038;-67
2023/01/16 01:55:03;;;;;;;8.77;3.22;;;4.40;99.90;;;;;;7372725;19;20631;-61
2023/01/16 01:57:43;;;;;;;11.40;3.15;;;4.40;99.90;;;;;;7376437;19;20507;-61
2023/01/16 02:00:21;;;;;;;13.60;3.45;;;4.40;99.90;;;;;;7370171;19;20118;-61
2023/01/16 02:03:08;;;;;;;7.57;2.67;;;4.50;99.90;;;;;;7371350;19;20017;-67
2023/01/16 02:05:44;;;;;;;5.68;2.75;;;4.50;99.90;;;;;;7371077;19;20015;-67
2023/01/16 02:08:17;;;;;;;9.20;2.78;;;4.60;99.90;;;;;;7372217;19;20036;-61
2023/01/16 02:10:55;;;;;;;8.88;2.63;;;4.60;99.90;;;;;;7371420;19;20815;-61
2023/01/16 02:13:21;;;;;;;6.28;2.47;;;4.70;99.90;;;;;;7373423;19;20020;-67
2023/01/16 02:21:32;;;;;;;6.22;2.42;;;4.80;99.90;;;;;;7373998;19;20050;-61
2023/01/16 02:24:21;;;;;;;8.73;2.92;;;4.80;99.90;;;;;;7372523;19;20028;-67
2023/01/16 02:27:17;;;;;;;8.30;2.40;;;4.90;99.90;;;;;;7369007;19;20506;-61
2023/01/16 02:30:09;;;;;;;8.10;3.42;;;4.90;99.90;;;;;;7370529;19;20023;-61
2023/01/16 02:33:03;;;;;;;5.73;2.30;;;4.90;99.90;;;;;;7368899;19;20019;-67
2023/01/16 02:35:56;;;;;;;8.95;3.25;;;4.90;99.90;;;;;;7369055;19;20304;-67
2023/01/16 02:38:38;;;;;;;6.10;2.38;;;4.90;99.90;;;;;;7370867;19;20030;-67
2023/01/16 02:41:19;;;;;;;5.22;2.53;;;4.90;99.90;;;;;;7369300;19;20440;-67
2023/01/16 02:43:54;;;;;;;10.70;2.85;;;4.90;99.90;;;;;;7373102;19;20023;-61
2023/01/16 02:46:56;;;;;;;5.68;2.65;;;4.90;99.90;;;;;;7364909;19;20386;-62
2023/01/16 02:49:40;;;;;;;7.97;2.88;;;4.90;99.90;;;;;;7369814;19;20010;-62
2023/01/16 02:52:17;;;;;;;8.48;3.28;;;4.90;99.90;;;;;;7373202;19;20620;-61
2023/01/16 02:55:11;;;;;;;9.40;2.92;;;4.80;99.90;;;;;;7369699;19;20293;-61
2023/01/16 02:57:41;;;;;;;8.98;3.40;;;4.80;99.90;;;;;;7368792;19;20014;-61
2023/01/16 03:00:09;;;;;;;9.07;3.03;;;4.70;99.90;;;;;;7373543;19;20015;-61
2023/01/16 03:02:36;;;;;;;8.07;3.45;;;4.70;99.90;;;;;;7370049;19;20121;-61
2023/01/16 03:05:02;;;;;;;6.88;2.97;;;4.60;99.90;;;;;;7374618;19;20330;-61
2023/01/16 03:07:56;;;;;;;7.53;3.55;;;4.50;99.90;;;;;;7368637;19;20600;-61
2023/01/16 03:10:58;;;;;;;9.45;3.63;;;4.40;99.90;;;;;;7368065;19;20030;-61
2023/01/16 03:13:33;;;;;;;5.88;3.47;;;4.40;99.90;;;;;;7368574;19;20484;-67
2023/01/16 03:16:12;;;;;;;9.38;4.40;;;4.40;99.90;;;;;;7370327;19;20022;-67
2023/01/16 03:18:49;;;;;;;10.35;3.72;;;4.40;99.90;;;;;;7369995;19;20022;-67
2023/01/16 03:21:34;;;;;;;6.72;3.80;;;4.40;99.90;;;;;;7371029;19;20018;-67
2023/01/16 03:24:18;;;;;;;5.45;3.83;;;4.50;99.90;;;;;;7371095;19;20866;-67
2023/01/16 03:26:51;;;;;;;10.18;4.40;;;4.50;99.90;;;;;;7369629;19;20132;-67
2023/01/16 03:29:32;;;;;;;12.23;4.80;;;4.60;99.90;;;;;;7365754;19;20021;-67
2023/01/16 03:32:02;;;;;;;7.43;4.57;;;4.60;99.90;;;;;;7368000;19;20051;-67
2023/01/16 03:34:53;;;;;;;8.45;5.25;;;4.60;99.90;;;;;;7371653;19;20078;-67
2023/01/16 03:37:27;;;;;;;9.05;5.72;;;4.60;99.90;;;;;;7367274;19;20046;-67
2023/01/16 03:40:03;;;;;;;12.15;5.45;;;4.60;99.90;;;;;;7363961;19;20046;-67
2023/01/16 03:42:37;;;;;;;8.48;5.72;;;4.60;99.90;;;;;;7369133;19;20019;-67
2023/01/16 03:45:20;;;;;;;9.05;5.70;;;4.60;99.90;;;;;;7370983;19;20042;-67
2023/01/16 03:47:59;;;;;;;8.98;6.20;;;4.60;99.90;;;;;;7367390;19;20010;-67
2023/01/16 03:50:27;;;;;;;12.13;5.55;;;4.60;99.90;;;;;;7368718;19;20026;-67
2023/01/16 03:53:00;;;;;;;7.65;6.22;;;4.70;99.90;;;;;;7367842;19;20064;-67
2023/01/16 03:55:31;;;;;;;12.55;6.68;;;4.70;99.90;;;;;;7367500;19;20033;-67
2023/01/16 03:58:04;;;;;;;9.27;6.05;;;4.70;99.90;;;;;;7370678;19;20022;-67
2023/01/16 04:00:56;;;;;;;11.27;6.13;;;4.70;99.90;;;;;;7368929;19;20039;-67
2023/01/16 04:03:34;;;;;;;11.57;5.97;;;4.70;99.90;;;;;;7368645;19;20022;-67
2023/01/16 04:06:16;;;;;;;9.85;6.40;;;4.70;99.90;;;;;;7366618;19;20040;-67
2023/01/16 04:08:45;;;;;;;11.27;6.18;;;4.70;99.90;;;;;;7368520;19;20014;-67
2023/01/16 04:11:15;;;;;;;9.77;7.47;;;4.70;99.90;;;;;;7370023;19;20018;-61
2023/01/16 04:13:44;;;;;;;9.88;7.05;;;4.70;99.90;;;;;;7368616;19;20033;-61
2023/01/16 04:16:17;;;;;;;11.05;8.07;;;4.70;99.90;;;;;;7366895;19;20010;-61
2023/01/16 04:18:45;;;;;;;14.00;8.05;;;4.70;99.90;;;;;;7368166;19;20028;-61
2023/01/16 04:21:12;;;;;;;11.65;8.68;;;4.70;99.90;;;;;;7366458;19;20082;-61
2023/01/16 04:23:42;;;;;;;13.93;9.45;;;4.70;99.90;;;;;;7365309;19;20975;-60
2023/01/16 04:26:11;;;;;;;13.68;8.90;;;4.70;99.90;;;;;;7363360;19;20022;-67
2023/01/16 04:28:38;;;;;;;15.38;9.93;;;4.70;99.90;;;;;;7367129;19;20018;-67
2023/01/16 04:31:04;;;;;;;16.08;10.98;;;4.70;99.90;;;;;;7364524;19;20022;-61
2023/01/16 04:33:31;;;;;;;16.13;11.88;;;4.80;99.90;;;;;;7364793;19;20018;-61
2023/01/16 04:35:58;;;;;;;18.60;12.25;;;4.80;99.90;;;;;;7364213;19;21178;-61
2023/01/16 04:38:24;;;;;;;20.65;12.35;;;4.80;99.90;;;;;;7366946;19;20732;-61
2023/01/16 04:40:54;;;;;;;18.63;12.73;;;4.80;99.90;;;;;;7364873;19;20026;-67
2023/01/16 04:43:21;;;;;;;19.42;13.75;;;4.70;99.90;;;;;;7367987;19;20011;-62
2023/01/16 04:45:47;;;;;;;20.65;13.65;;;4.70;99.90;;;;;;7362614;19;20038;-61
2023/01/16 04:48:14;;;;;;;18.75;14.07;;;4.70;99.90;;;;;;7366814;19;20014;-61
2023/01/16 04:50:40;;;;;;;19.00;15.10;;;4.70;99.90;;;;;;7361227;19;20021;-61
2023/01/16 04:53:06;;;;;;;20.33;15.13;;;4.60;99.90;;;;;;7369287;19;20105;-61
2023/01/16 04:55:33;;;;;;;20.50;15.00;;;4.60;99.90;;;;;;7363030;19;20023;-61
2023/01/16 04:57:59;;;;;;;20.85;16.02;;;4.70;99.90;;;;;;7364599;19;20029;-60
2023/01/16 05:00:26;;;;;;;20.40;14.57;;;4.60;99.90;;;;;;7363724;19;20022;-61
2023/01/16 05:02:52;;;;;;;19.80;15.15;;;4.60;99.90;;;;;;7363554;19;20110;-61
2023/01/16 05:05:21;;;;;;;18.10;14.77;;;4.50;99.90;;;;;;7363656;19;20094;-61
2023/01/16 05:08:15;;;;;;;23.17;16.00;;;4.50;99.90;;;;;;7366413;19;20010;-61
2023/01/16 05:10:34;;;;;;;26.17;15.77;;;4.40;99.90;;;;;;7363135;19;20010;-61
2023/01/16 05:13:01;;;;;;;20.88;13.90;;;4.30;99.90;;;;;;7363709;19;20029;-61
2023/01/16 05:15:28;;;;;;;19.30;13.77;;;4.20;99.90;;;;;;7365635;19;20022;-61
2023/01/16 05:17:55;;;;;;;18.58;13.80;;;4.20;99.90;;;;;;7365883;19;20850;-61
2023/01/16 05:20:22;;;;;;;21.55;14.55;;;4.20;99.90;;;;;;7366746;19;20848;-61
2023/01/16 05:22:48;;;;;;;20.25;14.07;;;4.00;99.90;;;;;;7361298;19;20025;-61
2023/01/16 05:25:14;;;;;;;22.17;13.13;;;4.00;99.90;;;;;;7364842;19;20800;-62
2023/01/16 05:27:49;;;;;;;19.65;11.98;;;4.00;99.90;;;;;;7355560;19;20081;-61
2023/01/16 05:30:16;;;;;;;21.70;13.50;;;3.90;99.90;;;;;;7359458;19;21626;-61
2023/01/16 05:32:43;;;;;;;19.75;13.23;;;3.90;99.90;;;;;;7366920;19;20022;-61
2023/01/16 05:35:31;;;;;;;20.77;13.27;;;3.80;99.90;;;;;;7363737;19;20026;-61
2023/01/16 05:38:17;;;;;;;19.77;12.38;;;3.70;99.90;;;;;;7358125;19;20019;-61
2023/01/16 05:40:45;;;;;;;21.90;11.30;;;3.70;99.90;;;;;;7358739;19;20023;-61
2023/01/16 05:43:11;;;;;;;20.10;12.38;;;3.70;99.90;;;;;;7365696;19;20026;-61
2023/01/16 05:45:38;;;;;;;19.92;12.68;;;3.70;99.90;;;;;;7368272;19;20476;-61
2023/01/16 05:48:04;;;;;;;16.90;12.60;;;3.70;99.90;;;;;;7369228;19;20760;-61
2023/01/16 05:50:31;;;;;;;22.73;12.95;;;3.80;99.90;;;;;;7369564;19;20018;-61
2023/01/16 05:52:57;;;;;;;18.50;11.80;;;3.80;99.90;;;;;;7370062;19;20106;-61
2023/01/16 05:55:24;;;;;;;15.50;11.32;;;3.90;99.90;;;;;;7369778;19;20018;-61
2023/01/16 05:57:52;;;;;;;20.80;11.48;;;3.90;99.90;;;;;;7367332;19;20045;-61
2023/01/16 06:00:19;;;;;;;18.63;10.65;;;3.90;99.90;;;;;;7366073;19;20517;-67
2023/01/16 06:02:46;;;;;;;16.77;11.32;;;3.90;99.90;;;;;;7361152;19;20026;-67
2023/01/16 06:05:13;;;;;;;15.98;10.70;;;4.00;99.90;;;;;;7369871;19;20015;-61
2023/01/16 06:07:41;;;;;;;18.77;9.00;;;3.90;99.90;;;;;;7361129;19;20482;-61
2023/01/16 06:10:09;;;;;;;17.40;9.43;;;3.90;99.90;;;;;;7362620;19;20042;-61
2023/01/16 06:12:36;;;;;;;14.75;9.30;;;3.90;99.90;;;;;;7361116;19;20022;-61
2023/01/16 06:15:02;;;;;;;15.93;10.07;;;3.90;99.90;;;;;;7362574;19;20796;-61
2023/01/16 06:17:30;;;;;;;14.90;9.10;;;3.90;99.90;;;;;;7364070;19;20883;-61
2023/01/16 06:19:57;;;;;;;16.90;10.77;;;3.90;99.90;;;;;;7361635;19;20045;-61
2023/01/16 06:22:25;;;;;;;14.73;8.90;;;3.80;99.90;;;;;;7361027;19;20022;-61
2023/01/16 06:24:52;;;;;;;15.25;9.05;;;3.80;99.90;;;;;;7363070;19;20026;-65
2023/01/16 06:27:18;;;;;;;14.27;7.68;;;3.80;99.90;;;;;;7360603;19;20026;-61
2023/01/16 06:29:45;;;;;;;11.23;7.47;;;3.70;99.90;;;;;;7358641;19;20010;-61
2023/01/16 06:32:11;;;;;;;12.77;8.82;;;3.70;99.90;;;;;;7366068;19;20496;-66
2023/01/16 06:34:38;;;;;;;11.93;8.15;;;3.70;99.90;;;;;;7362060;19;20019;-66
2023/01/16 06:37:05;;;;;;;14.98;9.10;;;3.70;99.90;;;;;;7366695;19;20024;-66
2023/01/16 06:39:32;;;;;;;14.95;8.38;;;3.70;99.90;;;;;;7364740;19;20022;-61
2023/01/16 06:42:04;;;;;;;16.58;7.38;;;3.70;99.90;;;;;;7365101;19;20592;-66
2023/01/16 06:44:32;;;;;;;14.90;7.68;;;3.80;99.90;;;;;;7361112;19;20078;-61
2023/01/16 06:47:00;;;;;;;15.43;8.68;;;3.80;99.90;;;;;;7360944;19;20493;-61
2023/01/16 06:49:29;;;;;;;15.82;7.93;;;3.80;99.90;;;;;;7361675;19;20113;-60
2023/01/16 06:52:02;;;;;;;14.57;7.88;;;3.70;99.90;;;;;;7362379;19;20018;-60
2023/01/16 06:54:38;;;;;;;11.77;7.53;;;3.70;99.90;;;;;;7360281;19;20019;-61
2023/01/16 06:57:10;;;;;;;12.70;7.00;;;3.70;99.90;;;;;;7360776;19;20014;-61
2023/01/16 06:59:36;;;;;;;12.25;7.15;;;3.70;99.90;;;;;;7363065;19;20026;-66
2023/01/16 07:02:03;;;;;;;13.48;7.35;;;3.70;99.90;;;;;;7363103;19;20040;-66
2023/01/16 07:04:29;;;;;;;9.85;7.43;;;3.70;99.90;;;;;;7362553;19;20030;-66
2023/01/16 07:07:10;;;;;;;13.25;6.85;;;3.60;99.90;;;;;;7359841;19;20915;-66
2023/01/16 07:09:37;;;;;;;11.02;7.00;;;3.60;99.90;;;;;;7359021;19;20686;-66
2023/01/16 07:12:04;;;;;;;15.50;7.72;;;3.60;99.90;;;;;;7358929;19;20022;-66
2023/01/16 07:22:46;;;;;;;13.52;6.90;;;3.50;99.90;;;;;;7357843;19;20018;-67
2023/01/16 07:25:21;;;;;;;13.23;6.88;;;3.50;99.90;;;;;;7363273;19;20034;-67
2023/01/16 07:27:50;;;;;;;14.82;7.47;;;3.50;99.90;;;;;;7357598;19;20026;-67
2023/01/16 07:30:18;;;;;;;12.57;7.47;;;3.50;99.90;;;;;;7359945;19;20021;-67
2023/01/16 07:32:46;;;;;;;15.73;7.18;;;3.50;99.90;;;;;;7361995;19;20869;-67
2023/01/16 07:35:13;;;;;;;13.88;6.40;;;3.60;99.90;;;;;;7362440;19;20039;-67
2023/01/16 07:37:42;;;;;;;13.35;7.18;;;3.60;99.90;;;;;;7362867;19;20477;-67
2023/01/16 07:40:09;;;;;;;12.40;7.30;;;3.70;99.90;;;;;;7360849;19;21106;-67
2023/01/16 07:42:36;;;;;;;15.48;8.18;;;3.60;99.90;;;;;;7359529;19;20799;-67
2023/01/16 07:45:03;;;;;;;12.23;7.30;;;3.60;99.90;;;;;;7357800;19;20022;-67
2023/01/16 07:47:29;;;;;;;16.17;6.43;;;3.70;99.90;;;;;;7363011;19;20046;-66
2023/01/16 07:49:58;;;;;;;14.75;7.88;;;3.70;99.90;;;;;;7360251;19;20580;-61
2023/01/16 07:52:25;;;;;;;14.88;8.45;;;3.70;99.90;;;;;;7360703;19;22114;-61
2023/01/16 07:54:51;;;;;;;12.20;7.55;;;3.70;99.90;;;;;;7358880;19;20882;-61
2023/01/16 07:57:17;;;;;;;12.90;8.00;;;3.70;99.90;;;;;;7358466;19;20046;-61
2023/01/16 07:59:45;;;;;;;15.68;9.18;;;3.80;99.90;;;;;;7364047;19;20029;-61
2023/01/16 08:02:11;;;;;;;13.18;9.10;;;3.80;99.90;;;;;;7360297;19;20069;-61
2023/01/16 08:04:38;;;;;;;16.60;9.50;;;3.80;99.90;;;;;;7357384;19;20018;-65
2023/01/16 08:07:04;;;;;;;18.67;8.85;;;3.80;99.90;;;;;;7364189;19;20535;-66
2023/01/16 08:09:37;;;;;;;13.65;8.10;;;3.80;99.90;;;;;;7362506;19;20015;-66
2023/01/16 08:12:03;;;;;;;17.52;8.40;;;3.80;99.90;;;;;;7364477;19;20019;-67
2023/01/16 08:14:30;;;;;;;14.43;8.55;;;3.80;99.90;;;;;;7359594;19;20015;-67
2023/01/16 08:16:57;;;;;;;11.25;7.10;;;3.80;99.90;;;;;;7363014;19;20021;-62
2023/01/16 08:19:23;;;;;;;13.45;7.43;;;3.80;99.90;;;;;;7362656;19;20027;-61
2023/01/16 08:21:49;;;;;;;12.70;7.50;;;3.90;99.90;;;;;;7359693;19;20018;-61
2023/01/16 08:24:17;;;;;;;14.73;8.00;;;3.90;99.90;;;;;;7360153;19;20029;-63
2023/01/16 08:26:43;;;;;;;12.40;7.00;;;4.00;99.90;;;;;;7358085;19;20022;-60
2023/01/16 08:29:12;;;;;;;12.60;7.75;;;4.00;99.90;;;;;;7364148;19;20044;-61
2023/01/16 08:31:39;;;;;;;12.82;7.32;;;4.00;99.90;;;;;;7364570;19;20021;-61
2023/01/16 08:34:05;;;;;;;11.70;6.63;;;4.10;99.90;;;;;;7363698;19;20121;-61
2023/01/16 08:36:32;;;;;;;13.13;6.53;;;4.10;99.90;;;;;;7361089;19;20015;-61
2023/01/16 08:38:59;;;;;;;13.35;6.30;;;4.10;99.90;;;;;;7361458;19;20497;-60
2023/01/16 08:52:40;;;;;;;7.82;4.75;;;4.30;99.90;;;;;;7360016;19;20010;-68
2023/01/16 08:55:07;;;;;;;8.60;4.80;;;4.30;99.90;;;;;;7360225;19;20015;-63
2023/01/16 08:57:35;;;;;;;13.10;6.60;;;4.30;99.90;;;;;;7362784;19;20464;-61
2023/01/16 09:00:03;;;;;;;10.70;5.90;;;4.40;99.90;;;;;;7360407;19;20604;-67
2023/01/16 09:02:31;;;;;;;13.52;6.38;;;4.40;99.90;;;;;;7362191;19;20046;-67
2023/01/16 09:04:57;;;;;;;8.93;6.00;;;4.40;99.90;;;;;;7360646;19;20043;-67
2023/01/16 09:07:24;;;;;;;8.63;5.25;;;4.40;99.90;;;;;;7362647;19;20035;-61
2023/01/16 09:09:51;;;;;;;7.25;5.72;;;4.30;99.90;;;;;;7358940;19;20025;-66
2023/01/16 09:15:04;;;;;;;10.55;5.00;;;4.30;99.90;;;;;;7362031;19;20022;-61
2023/01/16 09:17:31;;;;;;;8.48;5.63;;;4.30;99.90;;;;;;7360225;19;20110;-66
2023/01/16 09:19:57;;;;;;;14.15;5.50;;;4.30;99.90;;;;;;7366525;19;20752;-61
2023/01/16 09:22:27;;;;;;;8.82;5.07;;;4.30;99.90;;;;;;7368412;19;20765;-62
2023/01/16 09:24:54;;;;;;;8.82;5.30;;;4.30;99.90;;;;;;7366514;19;20014;-61
2023/01/16 09:27:22;;;;;;;11.80;5.25;;;4.30;99.90;;;;;;7365413;19;20014;-62
2023/01/16 09:29:49;;;;;;;8.80;4.82;;;4.30;99.90;;;;;;7367068;19;20027;-62
2023/01/16 09:32:16;;;;;;;11.40;5.40;;;4.30;99.90;;;;;;7365919;19;20045;-67
2023/01/16 09:34:43;;;;;;;10.63;4.93;;;4.40;99.90;;;;;;7362785;19;20015;-67
2023/01/16 09:37:09;;;;;;;9.50;4.53;;;4.40;99.90;;;;;;7367356;19;20019;-67
2023/01/16 09:39:37;;;;;;;8.25;4.18;;;4.40;99.90;;;;;;7364319;19;20395;-67
2023/01/16 09:45:14;;;;;;;;;;;4.40;99.90;;;;;;7367300;19;20023;-62
2023/01/16 09:47:45;;;;;;;6.60;3.72;;;4.40;99.90;;;;;;7368260;19;20697;-62
2023/01/16 09:50:26;;;;;;;7.05;3.58;;;4.40;99.90;;;;;;7367646;19;20015;-62
2023/01/16 09:58:45;;;;;;;5.72;2.75;;;4.50;99.90;;;;;;7366138;19;20491;-61
2023/01/16 10:01:22;;;;;;;5.20;2.90;;;4.50;99.90;;;;;;7360895;19;20026;-61
2023/01/16 10:03:48;;;;;;;7.35;3.50;;;4.50;99.90;;;;;;7366480;19;20019;-61
2023/01/16 10:06:33;;;;;;;6.75;3.83;;;4.50;99.90;;;;;;7362657;19;20029;-61
2023/01/16 10:09:11;;;;;;;4.47;2.50;;;4.60;99.90;;;;;;7365719;19;20101;-61
2023/01/16 10:11:45;;;;;;;7.28;4.15;;;4.60;99.90;;;;;;7361718;19;20030;-62
2023/01/16 10:14:23;;;;;;;5.30;2.33;;;4.60;99.90;;;;;;7365609;19;20026;-61
2023/01/16 10:17:07;;;;;;;6.75;2.35;;;4.60;99.90;;;;;;7362895;19;20018;-62
2023/01/16 10:19:56;;;;;;;5.05;2.67;;;4.50;99.90;;;;;;7364190;19;20836;-62
2023/01/16 10:23:07;;;;;;;6.50;2.75;;;4.50;99.90;;;;;;7366349;19;20040;-62
2023/01/16 10:26:01;;;;;;;4.20;1.77;;;4.50;99.90;;;;;;7361379;19;20074;-62
2023/01/16 10:28:39;;;;;;;4.15;1.75;;;4.40;99.90;;;;;;7363464;19;20436;-62
2023/01/16 10:31:14;;;;;;;4.93;2.40;;;4.40;99.90;;;;;;7357097;19;20022;-63
2023/01/16 10:33:50;;;;;;;8.95;2.67;;;4.30;99.90;;;;;;7362429;19;20846;-61
2023/01/16 10:36:20;;;;;;;5.78;2.67;;;4.30;99.90;;;;;;7364065;19;20021;-62
2023/01/16 10:38:56;;;;;;;4.25;2.40;;;4.20;99.90;;;;;;7364741;19;20014;-62
2023/01/16 10:50:18;;;;;;;8.65;3.10;;;4.10;99.90;;;;;;7364919;19;20035;-62
2023/01/16 10:52:47;;;;;;;5.35;2.58;;;4.10;99.90;;;;;;7361772;19;20124;-61
2023/01/16 10:55:15;;;;;;;4.00;2.40;;;4.10;99.90;;;;;;7363170;19;20025;-61
2023/01/16 10:57:49;;;;;;;19.70;12.00;;;4.10;99.90;;;;;;7363268;19;20014;-61
2023/01/16 11:00:25;;;;;;;5.40;3.47;;;4.20;99.90;;;;;;7363827;19;20479;-65
2023/01/16 11:02:52;;;;;;;4.90;3.15;;;4.20;99.90;;;;;;7358889;19;20906;-61
2023/01/16 11:05:46;;;;;;;6.30;2.85;;;4.20;99.90;;;;;;7362850;19;20039;-65
2023/01/16 11:08:17;;;;;;;4.93;3.00;;;4.20;99.90;;;;;;7363369;19;20014;-65
2023/01/16 11:10:48;;;;;;;4.43;3.03;;;4.20;99.90;;;;;;7359468;19;20022;-65
2023/01/16 11:19:19;;;;;;;6.45;3.38;;;4.30;99.90;;;;;;7363633;19;20027;-61
2023/01/16 11:21:55;;;;;;;4.32;2.53;;;4.30;99.90;;;;;;7358872;19;20030;-65
2023/01/16 11:24:32;;;;;;;5.85;3.20;;;4.30;99.90;;;;;;7359790;19;20014;-64
2023/01/16 11:27:00;;;;;;;5.15;3.15;;;4.30;99.90;;;;;;7357313;19;20022;-65
2023/01/16 11:29:34;;;;;;;4.38;3.67;;;4.30;99.90;;;;;;7362434;19;20018;-61
2023/01/16 11:32:05;;;;;;;4.82;3.13;;;4.30;99.90;;;;;;7358424;19;20390;-61
2023/01/16 11:34:32;;;;;;;6.05;2.33;;;4.30;99.90;;;;;;7361208;19;20728;-65
2023/01/16 11:37:02;;;;;;;3.85;2.58;;;4.30;99.90;;;;;;7356674;19;20018;-65
2023/01/16 11:39:31;;;;;;;4.80;2.85;;;4.30;99.90;;;;;;7360664;19;20398;-61
2023/01/16 11:46:01;;;;;;;6.47;3.55;;;4.30;99.90;;;;;;7360138;19;20041;-65
2023/01/16 11:47:41;;;;;;;7.95;2.90;;;4.30;99.90;;;;;;7361016;19;20106;-65
2023/01/16 11:50:35;;;;;;;5.53;2.92;;;4.30;99.90;;;;;;7362122;19;20908;-65
2023/01/16 11:53:02;;;;;;;4.40;3.08;;;4.30;99.90;;;;;;7363488;19;20117;-65
2023/01/16 11:55:49;;;;;;;5.35;3.60;;;4.30;99.90;;;;;;7360169;19;20361;-65
2023/01/16 11:58:35;;;;;;;6.18;3.10;;;4.30;99.90;;;;;;7359407;19;20026;-65
2023/01/16 12:01:13;;;;;;;4.20;2.70;;;4.40;99.90;;;;;;7359915;19;20018;-66
2023/01/16 12:03:46;;;;;;;6.82;3.58;;;4.40;99.90;;;;;;7365314;19;20019;-65
2023/01/16 12:06:19;;;;;;;4.93;2.90;;;4.40;99.90;;;;;;7361602;19;20061;-65
2023/01/16 12:09:11;;;;;;;7.00;3.10;;;4.40;99.90;;;;;;7363352;19;20481;-62
2023/01/16 12:14:17;;;;;;;5.35;2.75;;;4.50;99.90;;;;;;7365862;19;22049;-64
2023/01/16 12:15:10;;;;;;;3.97;2.60;;;4.50;99.90;;;;;;7363055;19;20041;-65
2023/01/16 12:17:52;;;;;;;8.38;3.10;;;4.50;99.90;;;;;;7360765;19;20520;-65
2023/01/16 12:20:34;;;;;;;8.15;3.90;;;4.50;99.90;;;;;;7363772;19;20073;-65
2023/01/16 12:23:20;;;;;;;4.80;3.63;;;4.50;99.90;;;;;;7359546;19;20022;-64
2023/01/16 12:26:26;;;;;;;5.15;3.25;;;4.60;99.90;;;;;;7358239;19;20074;-65
2023/01/16 12:29:01;;;;;;;6.20;3.45;;;4.60;99.90;;;;;;7361684;19;20022;-64
2023/01/16 12:31:35;;;;;;;7.78;3.20;;;4.70;99.90;;;;;;7360782;19;20026;-65
2023/01/16 12:34:14;;;;;;;5.43;3.20;;;4.70;99.90;;;;;;7359249;19;20525;-65
2023/01/16 12:37:10;;;;;;;5.55;3.40;;;4.70;99.90;;;;;;7361717;19;20035;-65
2023/01/16 12:39:36;;;;;;;7.00;3.55;;;4.70;99.90;;;;;;7360271;19;20648;-65
2023/01/16 12:45:20;;;;;;;7.80;3.42;;;4.70;99.90;;;;;;7355945;19;20015;-61
2023/01/16 12:48:15;;;;;;;6.15;3.60;;;4.70;99.90;;;;;;7360818;19;20028;-61
2023/01/16 12:51:04;;;;;;;4.60;3.15;;;4.70;99.90;;;;;;7362949;19;20509;-62
2023/01/16 12:53:48;;;;;;;5.50;3.33;;;4.70;99.90;;;;;;7363700;19;20022;-61
2023/01/16 12:56:38;;;;;;;7.07;4.15;;;4.70;99.90;;;;;;7369275;19;21221;-61
2023/01/16 12:59:40;;;;;;;6.45;3.92;;;4.70;99.90;;;;;;7362569;19;20050;-62
2023/01/16 13:02:34;;;;;;;5.43;4.13;;;4.70;99.90;;;;;;7364514;19;20050;-61
2023/01/16 13:05:05;;;;;;;6.78;3.83;;;4.70;99.90;;;;;;7363542;19;20094;-61
2023/01/16 13:07:45;;;;;;;6.50;3.78;;;4.80;99.90;;;;;;7365246;19;20038;-61
2023/01/16 13:13:27;;;;;;;7.53;4.20;;;4.80;99.90;;;;;;7363817;19;20382;-61
2023/01/16 13:16:18;;;;;;;6.70;3.53;;;4.80;99.90;;;;;;7365682;19;20015;-61
2023/01/16 13:18:53;;;;;;;4.95;3.58;;;4.90;99.90;;;;;;7365553;19;20018;-62
2023/01/16 13:21:29;;;;;;;7.03;3.78;;;4.90;99.90;;;;;;7368140;19;20752;-61
2023/01/16 13:24:08;;;;;;;6.72;3.90;;;4.90;99.90;;;;;;7363433;19;20014;-62
2023/01/16 13:26:35;;;;;;;10.52;3.95;;;4.90;99.90;;;;;;7362735;19;20059;-64
2023/01/16 13:29:28;;;;;;;5.78;3.47;;;4.90;99.90;;;;;;7366670;19;20018;-64
2023/01/16 13:32:20;;;;;;;5.07;3.95;;;5.00;99.90;;;;;;7366586;19;20019;-64
2023/01/16 13:34:48;;;;;;;;;;;5.00;99.90;;;;;;7365035;19;20025;-64
2023/01/16 13:37:15;;;;;;;6.28;3.90;;;5.00;99.90;;;;;;7365167;19;19934;-64
2023/01/16 13:40:12;;;;;;;3.38;2.67;;;5.00;99.90;;;;;;7364370;19;20030;-65
2023/01/16 13:42:49;;;;;;;3.78;2.90;;;5.00;99.90;;;;;;7364575;19;20022;-65
2023/01/16 13:48:20;;;;;;;5.43;2.72;;;5.00;99.90;;;;;;7364409;19;20074;-64
2023/01/16 13:50:58;;;;;;;5.10;3.10;;;5.00;99.90;;;;;;7360003;19;20110;-66
2023/01/16 13:53:26;;;;;;;5.75;2.88;;;5.10;99.90;;;;;;7366299;19;20785;-61
2023/01/16 13:56:30;;;;;;;4.05;2.97;;;5.10;99.90;;;;;;7363933;19;20026;-61
2023/01/16 13:59:05;;;;;;;3.35;2.40;;;5.10;99.90;;;;;;7359398;19;20031;-61
2023/01/16 14:01:32;;;;;;;4.18;2.15;;;5.10;99.90;;;;;;7368502;19;20444;-61
2023/01/16 14:04:15;;;;;;;3.97;2.70;;;5.10;99.90;;;;;;7364925;19;20037;-61
2023/01/16 14:10:18;;;;;;;5.30;2.38;;;5.10;99.90;;;;;;7366821;19;20025;-64
2023/01/16 14:13:26;;;;;;;4.82;3.05;;;5.10;99.90;;;;;;7366702;19;20018;-64
2023/01/16 14:18:56;;;;;;;3.75;2.38;;;5.10;99.90;;;;;;7361619;19;20049;-61
2023/01/16 14:21:24;;;;;;;3.53;1.80;;;5.20;99.90;;;;;;7365766;19;20006;-61
2023/01/16 14:24:00;;;;;;;3.05;1.70;;;5.20;99.90;;;;;;7361608;19;20061;-61
2023/01/16 14:26:38;;;;;;;3.58;1.90;;;5.20;99.90;;;;;;7364644;19;20795;-60
2023/01/16 14:29:29;;;;;;;3.50;1.80;;;5.20;99.90;;;;;;7365245;19;20786;-60
2023/01/16 14:32:05;;;;;;;3.00;1.85;;;5.30;99.90;;;;;;7364587;19;20023;-61
2023/01/16 14:34:40;;;;;;;5.00;1.88;;;5.30;99.90;;;;;;7367200;19;20086;-61